Time;durP1;ratioP1;P1;durP2;ratioP2;P2;SDS_P1;SDS_P2;PMS_P1;PMS_P2;Temp;Humidity;BMP_temperature;BMP_pressure;BME280_temperature;BME280_humidity;BME280_pressure;Samples;Min_cycle;Max_cycle;Signal;HPM_P1;HPM_P2
2023/06/02 00:00:43;;;;;;;11.27;2.97;;;;;;;;;;4969589;28;20046;-64
2023/06/02 00:03:10;;;;;;;15.45;2.58;;;11.00;99.90;;;;;;4970428;28;20125;-64
2023/06/02 00:05:38;;;;;;;10.63;2.63;;;11.30;99.90;;;;;;4936073;28;20122;-64
2023/06/02 00:08:04;;;;;;;13.93;2.90;;;11.50;99.90;;;;;;4970318;28;20034;-64
2023/06/02 00:10:30;;;;;;;12.35;2.90;;;;;;;;;;4970662;28;20042;-64
2023/06/02 00:12:56;;;;;;;8.80;2.30;;;11.50;99.90;;;;;;4970477;28;20045;-64
2023/06/02 00:15:22;;;;;;;14.05;3.28;;;11.10;99.90;;;;;;4952456;28;20409;-64
2023/06/02 00:17:47;;;;;;;14.32;2.90;;;11.60;99.90;;;;;;4969693;28;20493;-64
2023/06/02 00:20:13;;;;;;;15.75;2.65;;;11.20;99.90;;;;;;4953123;28;20408;-64
2023/06/02 00:22:39;;;;;;;11.88;2.90;;;11.70;99.90;;;;;;4953041;28;20046;-64
2023/06/02 00:25:05;;;;;;;12.43;3.42;;;11.20;99.90;;;;;;4970448;28;20073;-64
2023/06/02 00:27:31;;;;;;;10.18;2.80;;;11.10;99.90;;;;;;4969138;28;20043;-64
2023/06/02 00:29:57;;;;;;;9.75;2.90;;;;;;;;;;4953498;28;20369;-64
2023/06/02 00:32:23;;;;;;;9.90;3.53;;;11.50;99.90;;;;;;4944062;28;20506;-64
2023/06/02 00:34:48;;;;;;;12.25;3.40;;;11.10;99.90;;;;;;4968390;28;20043;-64
2023/06/02 00:37:14;;;;;;;16.15;3.28;;;;;;;;;;4966218;28;20062;-63
2023/06/02 00:39:40;;;;;;;12.70;2.63;;;11.40;99.90;;;;;;4969272;28;20397;-64
2023/06/02 00:42:06;;;;;;;12.88;3.40;;;11.30;99.90;;;;;;4952376;28;20039;-64
2023/06/02 00:44:32;;;;;;;11.32;3.22;;;11.20;99.90;;;;;;4970670;28;20078;-64
2023/06/02 00:46:58;;;;;;;10.73;2.58;;;;;;;;;;4937380;28;20112;-64
2023/06/02 00:49:24;;;;;;;10.80;2.53;;;10.80;99.90;;;;;;4955178;28;20050;-64
2023/06/02 00:51:51;;;;;;;12.43;2.55;;;11.50;99.90;;;;;;4973208;28;20038;-64
2023/06/02 00:54:18;;;;;;;16.65;3.35;;;11.40;99.90;;;;;;4948346;28;20100;-64
2023/06/02 00:56:43;;;;;;;14.48;2.50;;;10.90;99.90;;;;;;4955887;28;20035;-64
2023/06/02 00:59:10;;;;;;;10.32;2.50;;;11.10;99.90;;;;;;4940095;28;20054;-64
2023/06/02 01:01:38;;;;;;;15.02;2.70;;;11.20;99.90;;;;;;4972003;28;20042;-64
2023/06/02 01:04:07;;;;;;;13.93;3.15;;;11.30;99.90;;;;;;4966372;28;20110;-64
2023/06/02 01:06:37;;;;;;;11.20;2.95;;;11.10;99.90;;;;;;4973540;28;20408;-64
2023/06/02 01:09:08;;;;;;;11.90;3.15;;;11.30;99.90;;;;;;4973761;28;20050;-64
2023/06/02 01:11:40;;;;;;;12.18;3.67;;;11.60;99.90;;;;;;4971629;28;20101;-64
2023/06/02 01:14:14;;;;;;;16.15;3.08;;;11.50;99.90;;;;;;4956350;28;20520;-64
2023/06/02 01:16:44;;;;;;;10.35;2.22;;;11.40;99.90;;;;;;4973310;28;20039;-64
2023/06/02 01:19:13;;;;;;;9.07;3.10;;;10.90;99.90;;;;;;4956111;28;20109;-64
2023/06/02 01:21:40;;;;;;;12.00;2.85;;;11.10;99.90;;;;;;4953836;28;20122;-64
2023/06/02 01:24:06;;;;;;;12.88;3.33;;;11.10;99.90;;;;;;4972680;28;20377;-64
2023/06/02 01:26:34;;;;;;;13.75;3.20;;;11.30;99.90;;;;;;4973341;28;20055;-64
2023/06/02 01:29:07;;;;;;;9.95;2.88;;;11.20;99.90;;;;;;4972950;28;20045;-64
2023/06/02 01:31:46;;;;;;;8.95;2.78;;;;;;;;;;4973351;28;20390;-64
2023/06/02 01:34:27;;;;;;;12.73;3.75;;;11.50;99.90;;;;;;4952218;28;20117;-64
2023/06/02 01:36:57;;;;;;;11.23;2.60;;;11.10;99.90;;;;;;4951511;28;20048;-64
2023/06/02 01:39:24;;;;;;;11.38;3.00;;;11.10;99.90;;;;;;4955664;28;20413;-63
2023/06/02 01:41:52;;;;;;;12.32;3.35;;;10.80;99.90;;;;;;4972562;28;20064;-64
2023/06/02 01:44:19;;;;;;;10.98;3.17;;;10.90;99.90;;;;;;4971074;28;20078;-64
2023/06/02 01:46:45;;;;;;;16.13;3.05;;;11.00;99.90;;;;;;4972534;28;20046;-64
2023/06/02 01:49:17;;;;;;;11.80;3.22;;;11.20;99.90;;;;;;4971946;28;20050;-63
2023/06/02 01:51:44;;;;;;;12.80;5.13;;;10.60;99.90;;;;;;4973996;28;20401;-64
2023/06/02 01:54:10;;;;;;;19.70;3.38;;;11.00;99.90;;;;;;4973231;28;20042;-64
2023/06/02 01:56:36;;;;;;;11.13;3.25;;;11.30;99.90;;;;;;4952871;28;20035;-64
2023/06/02 01:59:03;;;;;;;13.27;3.50;;;11.10;99.90;;;;;;4972379;28;20163;-64
2023/06/02 02:01:28;;;;;;;9.93;3.15;;;11.20;99.90;;;;;;4973193;28;20077;-64
2023/06/02 02:03:54;;;;;;;20.42;3.42;;;11.70;99.90;;;;;;4955339;28;20077;-64
2023/06/02 02:06:32;;;;;;;14.05;3.78;;;11.40;99.90;;;;;;4971595;28;20031;-64
2023/06/02 02:09:03;;;;;;;17.10;3.20;;;10.90;99.90;;;;;;4972181;28;20232;-64
2023/06/02 02:11:29;;;;;;;10.70;3.00;;;11.20;99.90;;;;;;4954824;28;20085;-64
2023/06/02 02:13:55;;;;;;;10.15;3.00;;;11.20;99.90;;;;;;4954371;28;20039;-64
2023/06/02 02:16:21;;;;;;;13.38;3.55;;;11.10;99.90;;;;;;4954294;28;20050;-64
2023/06/02 02:18:47;;;;;;;12.90;2.90;;;10.90;99.90;;;;;;4971704;28;20092;-64
2023/06/02 02:21:13;;;;;;;9.75;2.90;;;10.70;99.90;;;;;;4972347;28;20070;-64
2023/06/02 02:23:39;;;;;;;15.07;3.17;;;10.90;99.90;;;;;;4938565;28;20067;-64
2023/06/02 02:26:08;;;;;;;11.48;4.38;;;11.40;1.00;;;;;;4955204;28;20126;-64
2023/06/02 02:28:34;;;;;;;14.48;3.50;;;11.20;99.90;;;;;;4953747;28;20053;-64
2023/06/02 02:30:59;;;;;;;12.07;2.60;;;10.90;1.00;;;;;;4971864;28;20050;-64
2023/06/02 02:33:25;;;;;;;12.55;2.90;;;10.70;1.00;;;;;;4955024;28;20050;-64
2023/06/02 02:35:53;;;;;;;11.82;2.85;;;11.00;1.00;;;;;;4972471;28;20413;-64
2023/06/02 02:38:19;;;;;;;10.38;3.03;;;11.00;1.00;;;;;;4971533;28;20062;-64
2023/06/02 02:40:46;;;;;;;10.45;3.03;;;;;;;;;;4972980;28;20392;-64
2023/06/02 02:43:11;;;;;;;14.48;3.15;;;10.80;1.00;;;;;;4955068;28;20050;-64
2023/06/02 02:45:37;;;;;;;12.75;2.67;;;10.90;1.00;;;;;;4972573;28;20457;-64
2023/06/02 02:48:03;;;;;;;8.10;3.38;;;11.00;1.00;;;;;;4950846;28;20408;-64
2023/06/02 02:50:29;;;;;;;17.10;4.05;;;11.00;1.00;;;;;;4971898;28;20046;-64
2023/06/02 02:52:55;;;;;;;14.77;3.55;;;11.20;1.00;;;;;;4952472;28;20045;-64
2023/06/02 02:55:21;;;;;;;15.68;3.35;;;11.10;1.00;;;;;;4970778;28;20039;-64
2023/06/02 02:57:47;;;;;;;14.55;3.42;;;11.20;1.00;;;;;;4971434;28;20039;-64
2023/06/02 03:00:13;;;;;;;13.40;2.78;;;11.70;1.00;;;;;;4954061;28;20496;-64
2023/06/02 03:02:39;;;;;;;15.55;2.92;;;10.90;1.00;;;;;;4953225;28;20178;-64
2023/06/02 03:05:06;;;;;;;17.17;3.28;;;11.00;1.00;;;;;;4970330;28;20074;-64
2023/06/02 03:07:34;;;;;;;14.15;3.20;;;11.00;1.00;;;;;;4954041;28;20093;-64
2023/06/02 03:10:00;;;;;;;13.95;3.28;;;11.00;1.00;;;;;;4970709;28;20404;-64
2023/06/02 03:12:25;;;;;;;15.20;3.75;;;11.10;6.50;;;;;;4971492;28;20047;-64
2023/06/02 03:14:51;;;;;;;12.27;2.90;;;11.00;24.30;;;;;;4966670;28;20049;-64
2023/06/02 03:17:17;;;;;;;12.77;3.17;;;10.90;79.20;;;;;;4966208;28;20046;-63
2023/06/02 03:19:43;;;;;;;12.32;3.67;;;11.40;96.90;;;;;;4965903;28;20093;-63
2023/06/02 03:22:09;;;;;;;11.43;3.22;;;10.80;98.80;;;;;;4967019;28;20047;-64
2023/06/02 03:24:35;;;;;;;18.05;3.42;;;11.00;99.90;;;;;;4968911;28;20397;-63
2023/06/02 03:27:00;;;;;;;13.10;3.03;;;11.40;99.90;;;;;;4969778;28;20153;-63
2023/06/02 03:29:26;;;;;;;14.93;3.35;;;10.90;99.90;;;;;;4971113;28;20504;-64
2023/06/02 03:31:55;;;;;;;13.10;2.88;;;11.00;99.90;;;;;;4937197;28;20054;-64
2023/06/02 03:34:22;;;;;;;14.98;4.22;;;10.70;99.90;;;;;;4953919;28;20039;-64
2023/06/02 03:36:48;;;;;;;17.90;4.55;;;11.00;99.90;;;;;;4968015;28;20168;-64
2023/06/02 03:39:14;;;;;;;13.25;3.17;;;10.80;99.90;;;;;;4970766;28;20078;-64
2023/06/02 03:41:40;;;;;;;11.98;2.70;;;11.20;99.90;;;;;;4953838;28;20121;-64
2023/06/02 03:44:06;;;;;;;14.52;3.08;;;11.00;99.90;;;;;;4970811;28;20166;-64
2023/06/02 03:46:32;;;;;;;12.65;2.88;;;11.00;99.90;;;;;;4971338;28;20442;-63
2023/06/02 03:48:58;;;;;;;15.25;3.05;;;10.70;99.90;;;;;;4969495;28;20130;-65
2023/06/02 03:51:24;;;;;;;18.27;3.90;;;11.10;99.90;;;;;;4953396;28;20077;-65
2023/06/02 03:53:50;;;;;;;14.88;3.03;;;11.20;99.90;;;;;;4970665;28;20408;-65
2023/06/02 03:56:16;;;;;;;10.98;2.67;;;11.20;99.90;;;;;;4971308;28;20042;-65
2023/06/02 03:58:42;;;;;;;14.02;3.05;;;11.10;99.90;;;;;;4952065;28;20046;-65
2023/06/02 04:01:08;;;;;;;11.77;3.00;;;11.20;99.90;;;;;;4950824;28;20043;-65
2023/06/02 04:03:36;;;;;;;11.63;2.88;;;11.20;99.90;;;;;;4953350;28;20648;-65
2023/06/02 04:06:06;;;;;;;13.77;3.38;;;11.10;99.90;;;;;;4970508;28;20110;-65
2023/06/02 04:08:33;;;;;;;11.90;3.40;;;11.00;99.90;;;;;;4966103;28;20078;-65
2023/06/02 04:10:59;;;;;;;14.57;3.10;;;11.40;99.90;;;;;;4968796;28;20039;-65
2023/06/02 04:13:25;;;;;;;14.98;3.75;;;11.20;99.90;;;;;;4970713;28;20089;-65
2023/06/02 04:15:51;;;;;;;13.13;4.07;;;11.30;99.90;;;;;;4970397;28;20047;-65
2023/06/02 04:18:16;;;;;;;9.95;3.25;;;11.20;99.90;;;;;;4970490;28;20109;-64
2023/06/02 04:20:42;;;;;;;10.48;3.90;;;11.30;99.90;;;;;;4951779;28;20039;-65
2023/06/02 04:23:08;;;;;;;12.77;3.83;;;11.10;99.90;;;;;;4972371;28;20066;-65
2023/06/02 04:25:34;;;;;;;16.15;3.50;;;11.70;99.90;;;;;;4970635;28;20039;-65
2023/06/02 04:28:00;;;;;;;17.80;4.22;;;;;;;;;;4973387;28;20035;-65
2023/06/02 04:30:26;;;;;;;14.32;3.33;;;11.20;99.90;;;;;;4973904;28;20424;-65
2023/06/02 04:32:52;;;;;;;14.20;3.30;;;11.80;99.90;;;;;;4973516;28;20511;-65
2023/06/02 04:35:19;;;;;;;12.63;3.35;;;;;;;;;;4973856;28;20046;-65
2023/06/02 04:37:46;;;;;;;13.25;3.55;;;11.60;99.90;;;;;;4972630;28;20497;-65
2023/06/02 04:40:13;;;;;;;14.20;3.38;;;12.00;99.90;;;;;;4956273;28;20070;-65
2023/06/02 04:42:39;;;;;;;15.40;3.97;;;11.30;99.90;;;;;;4955246;28;20035;-64
2023/06/02 04:45:16;;;;;;;17.25;3.65;;;11.40;99.90;;;;;;4973960;28;20042;-63
2023/06/02 04:47:42;;;;;;;19.83;4.47;;;11.60;99.90;;;;;;4970188;28;20772;-63
2023/06/02 04:50:09;;;;;;;14.23;4.05;;;12.20;99.90;;;;;;4973684;28;20532;-64
2023/06/02 04:52:42;;;;;;;11.50;3.67;;;11.80;99.90;;;;;;4939722;28;20042;-64
2023/06/02 04:55:09;;;;;;;18.77;4.38;;;11.90;99.90;;;;;;4965081;28;20047;-64
2023/06/02 04:57:36;;;;;;;11.40;3.30;;;12.00;99.90;;;;;;4936449;28;20057;-64
2023/06/02 05:00:06;;;;;;;18.20;3.90;;;12.30;99.90;;;;;;4950916;28;20047;-63
2023/06/02 05:02:33;;;;;;;14.32;3.30;;;11.80;99.90;;;;;;4949338;28;20046;-64
2023/06/02 05:04:59;;;;;;;18.23;4.75;;;12.20;99.90;;;;;;4967745;28;20035;-64
2023/06/02 05:07:24;;;;;;;15.25;3.30;;;11.90;99.90;;;;;;4972648;28;20026;-64
2023/06/02 05:09:51;;;;;;;15.10;4.30;;;12.20;99.90;;;;;;4954249;28;20041;-64
2023/06/02 05:12:16;;;;;;;17.58;3.67;;;12.10;99.90;;;;;;4955201;28;20039;-64
2023/06/02 05:14:42;;;;;;;15.50;3.55;;;12.00;99.90;;;;;;4955782;28;20086;-64
2023/06/02 05:17:08;;;;;;;16.23;3.60;;;11.70;99.90;;;;;;4972863;28;20046;-64
2023/06/02 05:19:35;;;;;;;16.15;3.75;;;12.20;99.90;;;;;;4939863;28;20043;-64
2023/06/02 05:22:02;;;;;;;16.00;3.67;;;11.90;99.90;;;;;;4973056;28;20066;-64
2023/06/02 05:24:28;;;;;;;16.35;3.67;;;12.40;99.90;;;;;;4972700;28;20493;-63
2023/06/02 05:26:54;;;;;;;13.50;4.50;;;12.80;99.90;;;;;;4972936;28;20035;-64
2023/06/02 05:29:19;;;;;;;12.82;3.42;;;12.80;99.90;;;;;;4939424;28;20039;-63
2023/06/02 05:31:45;;;;;;;15.43;3.63;;;12.90;99.90;;;;;;4972904;28;20272;-64
2023/06/02 05:34:11;;;;;;;12.85;3.22;;;12.40;99.90;;;;;;4972234;28;20039;-64
2023/06/02 05:36:36;;;;;;;21.52;3.92;;;12.40;99.90;;;;;;4955923;28;20046;-65
2023/06/02 05:39:02;;;;;;;14.15;3.65;;;12.50;99.90;;;;;;4972870;28;20050;-64
2023/06/02 05:41:28;;;;;;;16.92;3.85;;;12.70;99.90;;;;;;4972855;28;20035;-64
2023/06/02 05:43:57;;;;;;;11.93;3.30;;;12.50;99.90;;;;;;4966742;28;20034;-64
2023/06/02 05:46:23;;;;;;;17.42;4.25;;;12.20;99.90;;;;;;4955416;28;20035;-63
2023/06/02 05:51:21;;;;;;;16.27;4.22;;;12.70;99.90;;;;;;4984143;23;20046;-62
2023/06/02 05:53:49;;;;;;;17.60;5.68;;;12.90;99.90;;;;;;4956261;28;20066;-60
2023/06/02 05:56:16;;;;;;;14.88;4.22;;;12.60;99.90;;;;;;4956547;28;20038;-60
2023/06/02 05:58:41;;;;;;;15.98;4.40;;;12.50;99.90;;;;;;4940341;28;20039;-59
2023/06/02 06:01:09;;;;;;;17.52;4.28;;;;;;;;;;4971642;28;20043;-59
2023/06/02 06:03:35;;;;;;;12.73;4.28;;;12.50;99.90;;;;;;4955503;28;20047;-60
2023/06/02 06:06:01;;;;;;;16.58;4.80;;;12.70;99.90;;;;;;4952322;28;20089;-59
2023/06/02 06:08:27;;;;;;;18.45;4.40;;;12.80;99.90;;;;;;4955813;28;20341;-60
2023/06/02 06:10:52;;;;;;;16.80;3.92;;;12.90;99.90;;;;;;4951772;28;20038;-60
2023/06/02 06:13:18;;;;;;;16.13;3.80;;;12.40;99.90;;;;;;4951112;28;20259;-59
2023/06/02 06:15:47;;;;;;;21.67;5.65;;;12.80;99.90;;;;;;4958227;28;20045;-60
2023/06/02 06:18:13;;;;;;;16.23;4.32;;;12.80;99.90;;;;;;4954128;28;20391;-61
2023/06/02 06:20:41;;;;;;;16.77;4.05;;;13.00;99.90;;;;;;4956674;28;20049;-61
2023/06/02 06:23:07;;;;;;;18.25;4.90;;;12.90;99.90;;;;;;4948204;28;20042;-59
2023/06/02 06:25:33;;;;;;;14.35;3.65;;;13.40;99.90;;;;;;4952386;28;20058;-60
2023/06/02 06:27:58;;;;;;;16.05;4.15;;;12.80;99.90;;;;;;4953999;28;20039;-61
2023/06/02 06:30:24;;;;;;;18.33;4.70;;;13.10;99.90;;;;;;4956229;28;20047;-60
2023/06/02 06:32:50;;;;;;;15.20;4.10;;;13.10;99.90;;;;;;4955989;28;20054;-61
2023/06/02 06:35:15;;;;;;;15.23;3.70;;;13.00;99.90;;;;;;4946332;28;20050;-60
2023/06/02 06:37:41;;;;;;;20.95;4.10;;;13.20;99.90;;;;;;4952186;28;20046;-61
2023/06/02 06:40:07;;;;;;;13.90;3.70;;;13.40;99.90;;;;;;4929884;28;20039;-60
2023/06/02 06:42:33;;;;;;;16.05;4.35;;;13.50;99.90;;;;;;4950483;28;20047;-61
2023/06/02 06:44:59;;;;;;;16.48;4.63;;;13.90;99.90;;;;;;4953009;28;20093;-61
2023/06/02 06:47:25;;;;;;;20.77;4.30;;;13.50;99.90;;;;;;4952274;28;20149;-60
2023/06/02 06:49:52;;;;;;;13.68;4.70;;;14.10;99.90;;;;;;4952833;28;20184;-60
2023/06/02 06:52:18;;;;;;;14.77;3.97;;;13.90;99.90;;;;;;4951870;28;20046;-60
2023/06/02 06:54:45;;;;;;;17.02;4.00;;;;;;;;;;4956616;28;20543;-60
2023/06/02 06:57:11;;;;;;;18.52;4.20;;;;;;;;;;4955198;28;20053;-60
2023/06/02 06:59:41;;;;;;;16.58;4.65;;;13.70;99.90;;;;;;4931729;28;20125;-62
2023/06/02 07:02:07;;;;;;;17.67;5.07;;;13.70;99.90;;;;;;4938327;28;20130;-60
2023/06/02 07:04:33;;;;;;;14.52;3.80;;;14.30;99.90;;;;;;4953370;28;20035;-60
2023/06/02 07:06:59;;;;;;;17.67;4.70;;;;;;;;;;4955330;28;20085;-61
2023/06/02 07:09:25;;;;;;;16.42;4.25;;;;;;;;;;4938597;28;20047;-60
2023/06/02 07:11:50;;;;;;;18.38;4.10;;;14.00;99.90;;;;;;4956088;28;20043;-61
2023/06/02 07:14:17;;;;;;;19.63;4.32;;;14.50;99.90;;;;;;4945280;28;20039;-61
2023/06/02 07:16:48;;;;;;;14.00;4.47;;;;;;;;;;4955060;28;20387;-60
2023/06/02 07:19:14;;;;;;;20.15;4.78;;;14.60;99.90;;;;;;4954475;28;20050;-61
2023/06/02 07:21:40;;;;;;;15.10;4.28;;;14.70;99.90;;;;;;4940809;28;20047;-61
2023/06/02 07:24:05;;;;;;;15.90;4.18;;;14.90;99.90;;;;;;4946577;28;20031;-60
2023/06/02 07:26:31;;;;;;;20.75;4.60;;;15.00;99.90;;;;;;4947222;28;20049;-60
2023/06/02 07:28:57;;;;;;;23.27;5.70;;;14.90;99.90;;;;;;4955060;28;20501;-60
2023/06/02 07:31:23;;;;;;;18.38;6.07;;;15.20;99.90;;;;;;4937581;28;20101;-60
2023/06/02 07:33:49;;;;;;;18.75;4.40;;;14.80;90.70;;;;;;4954990;28;20421;-62
2023/06/02 07:36:15;;;;;;;17.60;5.10;;;14.90;9.30;;;;;;4938013;28;20461;-61
2023/06/02 07:38:40;;;;;;;15.85;4.60;;;15.20;1.00;;;;;;4936673;28;20543;-62
2023/06/02 07:41:06;;;;;;;15.50;4.53;;;15.20;1.00;;;;;;4953134;28;20360;-61
2023/06/02 07:43:32;;;;;;;18.00;4.70;;;15.30;1.00;;;;;;4951740;28;20529;-61
2023/06/02 07:45:58;;;;;;;18.05;4.53;;;15.50;1.00;;;;;;4946790;28;20364;-60
2023/06/02 07:48:24;;;;;;;12.88;4.13;;;15.40;1.00;;;;;;4951723;28;20035;-61
2023/06/02 07:50:50;;;;;;;17.85;4.55;;;15.40;1.00;;;;;;4954423;28;20089;-61
2023/06/02 07:53:15;;;;;;;19.50;4.38;;;15.70;1.00;;;;;;4946459;28;20324;-60
2023/06/02 07:55:41;;;;;;;16.58;4.78;;;15.90;99.90;;;;;;4936422;28;20431;-61
2023/06/02 07:58:08;;;;;;;18.10;4.40;;;15.80;1.00;;;;;;4956566;28;20166;-60
2023/06/02 08:00:38;;;;;;;13.73;3.80;;;15.80;99.90;;;;;;4956807;28;20043;-61
2023/06/02 08:03:07;;;;;;;14.80;4.10;;;15.70;99.90;;;;;;4955457;28;20542;-61
2023/06/02 08:05:33;;;;;;;18.92;4.38;;;16.20;99.90;;;;;;4951323;28;20621;-62
2023/06/02 08:07:59;;;;;;;17.42;4.55;;;16.30;99.90;;;;;;4951561;28;20537;-60
2023/06/02 08:10:25;;;;;;;17.33;4.03;;;16.30;99.90;;;;;;4936490;28;20572;-61
2023/06/02 08:12:50;;;;;;;17.42;4.32;;;16.10;99.90;;;;;;4950989;28;20344;-61
2023/06/02 08:15:16;;;;;;;18.17;4.70;;;16.20;99.90;;;;;;4955212;28;20462;-61
2023/06/02 08:17:42;;;;;;;14.13;4.00;;;16.30;99.90;;;;;;4959611;28;20121;-61
2023/06/02 08:20:08;;;;;;;20.42;4.85;;;16.00;99.90;;;;;;4940166;28;20042;-61
2023/06/02 08:22:36;;;;;;;20.02;4.50;;;15.80;99.90;;;;;;4953391;28;20039;-62
2023/06/02 08:25:02;;;;;;;19.45;3.95;;;16.50;99.90;;;;;;4932427;28;20047;-61
2023/06/02 08:27:29;;;;;;;14.88;4.18;;;16.00;99.90;;;;;;4951022;28;20490;-62
2023/06/02 08:29:56;;;;;;;13.68;4.45;;;15.70;99.90;;;;;;4953561;28;20118;-61
2023/06/02 08:32:22;;;;;;;15.30;4.13;;;15.90;99.90;;;;;;4936263;28;20046;-62
2023/06/02 08:34:54;;;;;;;19.27;3.92;;;16.50;99.90;;;;;;4957939;28;20524;-62
2023/06/02 08:37:21;;;;;;;17.67;3.60;;;16.20;99.90;;;;;;4932671;28;20043;-62
2023/06/02 08:39:49;;;;;;;16.83;4.47;;;16.20;99.90;;;;;;4957188;28;20409;-62
2023/06/02 08:42:16;;;;;;;21.08;4.68;;;16.70;99.90;;;;;;4956128;28;20283;-60
2023/06/02 08:44:43;;;;;;;15.93;4.40;;;16.40;99.90;;;;;;4948911;28;20570;-61
2023/06/02 08:47:13;;;;;;;14.50;4.13;;;16.10;99.90;;;;;;4948799;28;20178;-61
2023/06/02 08:49:42;;;;;;;15.38;3.75;;;16.40;99.90;;;;;;4958431;28;20054;-61
2023/06/02 08:52:22;;;;;;;14.30;3.72;;;16.20;99.90;;;;;;4950487;28;20130;-62
2023/06/02 08:54:49;;;;;;;18.60;5.47;;;16.60;99.90;;;;;;4957748;28;20047;-61
2023/06/02 08:57:16;;;;;;;21.92;5.28;;;16.60;99.90;;;;;;4924170;28;20568;-61
2023/06/02 08:59:43;;;;;;;15.07;3.88;;;16.00;99.90;;;;;;4952557;28;20118;-61
2023/06/02 09:02:09;;;;;;;14.25;4.00;;;16.60;99.90;;;;;;4943166;28;20110;-61
2023/06/02 09:04:35;;;;;;;15.75;4.03;;;16.20;99.90;;;;;;4945500;28;20042;-60
2023/06/02 09:07:13;;;;;;;12.50;3.70;;;15.70;99.90;;;;;;4951578;28;20102;-62
2023/06/02 09:09:44;;;;;;;12.32;3.80;;;16.00;99.90;;;;;;4950201;28;20450;-60
2023/06/02 09:12:10;;;;;;;14.25;3.28;;;15.90;99.90;;;;;;4950418;28;20643;-61
2023/06/02 09:14:36;;;;;;;14.43;4.85;;;16.30;99.90;;;;;;4958670;28;20153;-61
2023/06/02 09:17:02;;;;;;;14.13;3.92;;;16.50;99.90;;;;;;4949100;28;20047;-60
2023/06/02 09:19:48;;;;;;;13.45;3.58;;;16.30;99.90;;;;;;4947468;28;20041;-62
2023/06/02 09:22:14;;;;;;;17.48;3.80;;;16.40;99.90;;;;;;4955908;28;20047;-61
2023/06/02 09:24:40;;;;;;;11.77;3.20;;;15.90;99.90;;;;;;4940526;28;20061;-61
2023/06/02 09:27:12;;;;;;;13.32;2.88;;;16.40;99.90;;;;;;4937220;28;20501;-62
2023/06/02 09:29:39;;;;;;;13.63;2.90;;;16.00;99.90;;;;;;4946751;28;20306;-62
2023/06/02 09:32:11;;;;;;;11.05;2.95;;;16.60;99.90;;;;;;4955384;28;20050;-62
2023/06/02 09:34:37;;;;;;;9.30;2.85;;;15.90;99.90;;;;;;4955642;28;20050;-61
2023/06/02 09:37:22;;;;;;;8.75;2.70;;;16.30;99.90;;;;;;4954256;28;20338;-60
2023/06/02 09:39:49;;;;;;;9.40;2.60;;;16.00;99.90;;;;;;4951652;28;20744;-60
2023/06/02 09:42:16;;;;;;;11.40;2.78;;;16.50;99.90;;;;;;4954864;28;20050;-61
2023/06/02 09:45:02;;;;;;;9.57;2.65;;;16.10;99.90;;;;;;4936782;28;20058;-61
2023/06/02 09:47:28;;;;;;;10.43;2.45;;;16.10;99.90;;;;;;4956890;28;20556;-61
2023/06/02 09:49:54;;;;;;;8.68;2.72;;;16.70;99.90;;;;;;4956715;28;20092;-60
2023/06/02 09:52:19;;;;;;;9.40;2.40;;;16.20;99.90;;;;;;4928029;28;20146;-61
2023/06/02 09:54:49;;;;;;;9.07;2.10;;;16.60;99.90;;;;;;4951438;28;20428;-61
2023/06/02 09:57:16;;;;;;;11.57;2.55;;;15.80;99.90;;;;;;4957168;28;20508;-61
2023/06/02 09:59:43;;;;;;;7.40;2.10;;;16.40;92.50;;;;;;4946842;28;20489;-60
2023/06/02 10:02:09;;;;;;;12.95;3.10;;;16.80;42.50;;;;;;4920066;28;20059;-61
2023/06/02 10:04:35;;;;;;;8.80;2.08;;;16.30;1.00;;;;;;4930625;28;20584;-60
2023/06/02 10:07:25;;;;;;;6.80;2.05;;;16.70;1.00;;;;;;4950592;28;20121;-61
2023/06/02 10:10:16;;;;;;;6.30;1.75;;;16.50;1.00;;;;;;4950001;28;20054;-61
2023/06/02 10:12:53;;;;;;;6.93;1.90;;;16.70;1.00;;;;;;4951156;28;20453;-61
2023/06/02 10:15:53;;;;;;;9.50;1.90;;;16.70;1.00;;;;;;4948204;28;20363;-60
2023/06/02 10:18:58;;;;;;;6.43;1.90;;;16.70;1.00;;;;;;4955198;28;20070;-60
2023/06/02 10:22:03;;;;;;;10.13;2.67;;;16.80;99.90;;;;;;4951054;28;20129;-60
2023/06/02 10:25:04;;;;;;;5.38;2.10;;;16.90;99.90;;;;;;4935666;28;20085;-61
2023/06/02 10:27:39;;;;;;;5.30;1.73;;;16.80;99.90;;;;;;4944443;28;20083;-62
2023/06/02 10:30:07;;;;;;;8.68;2.40;;;;;;;;;;4951521;28;20051;-61
2023/06/02 10:32:45;;;;;;;8.43;1.95;;;17.10;99.90;;;;;;4950316;28;20395;-62
2023/06/02 10:35:11;;;;;;;8.15;2.20;;;17.20;99.90;;;;;;4953341;28;20145;-60
2023/06/02 10:37:39;;;;;;;6.55;2.17;;;16.70;99.90;;;;;;4951095;28;20050;-61
2023/06/02 10:40:08;;;;;;;6.07;1.90;;;16.60;99.90;;;;;;4952519;28;20046;-61
2023/06/02 10:42:34;;;;;;;10.45;1.98;;;17.50;99.90;;;;;;4949126;28;20106;-61
2023/06/02 10:45:34;;;;;;;7.40;1.83;;;17.40;99.90;;;;;;4928769;29;20047;-61
2023/06/02 10:48:00;;;;;;;8.35;1.92;;;17.10;99.90;;;;;;4917739;28;20139;-61
2023/06/02 10:50:53;;;;;;;6.28;1.60;;;17.20;99.90;;;;;;4952163;28;20161;-60
2023/06/02 10:53:19;;;;;;;8.93;1.80;;;17.40;99.90;;;;;;4928641;28;20460;-60
2023/06/02 10:55:45;;;;;;;7.45;2.00;;;17.40;99.90;;;;;;4934392;28;20390;-60
2023/06/02 10:58:12;;;;;;;9.80;1.85;;;17.90;99.90;;;;;;4948150;28;20318;-61
2023/06/02 11:00:45;;;;;;;5.53;1.65;;;17.60;99.90;;;;;;4930947;28;20522;-60
2023/06/02 11:03:18;;;;;;;4.40;1.33;;;18.00;99.90;;;;;;4954171;28;20050;-61
2023/06/02 11:05:45;;;;;;;6.45;1.73;;;18.30;99.90;;;;;;4946501;28;20092;-62
2023/06/02 11:08:12;;;;;;;7.20;1.75;;;17.70;99.90;;;;;;4947906;28;20065;-60
2023/06/02 11:10:52;;;;;;;8.27;2.65;;;17.90;99.90;;;;;;4952611;28;20046;-60
2023/06/02 11:13:19;;;;;;;7.57;1.80;;;17.70;99.90;;;;;;4953608;28;20078;-61
2023/06/02 11:15:53;;;;;;;6.65;1.65;;;17.70;99.90;;;;;;4939441;28;20050;-60
2023/06/02 11:18:22;;;;;;;5.38;2.03;;;17.90;99.90;;;;;;4945411;28;20057;-61
2023/06/02 11:20:50;;;;;;;5.75;2.08;;;;;;;;;;4931704;29;20070;-59
2023/06/02 11:23:20;;;;;;;6.32;1.90;;;17.90;99.90;;;;;;4950310;28;20047;-60
2023/06/02 11:26:04;;;;;;;6.18;1.65;;;18.20;99.90;;;;;;4931097;28;20046;-60
2023/06/02 11:28:30;;;;;;;6.60;2.25;;;18.30;99.90;;;;;;4952742;28;20105;-61
2023/06/02 11:31:15;;;;;;;6.50;1.90;;;18.00;99.90;;;;;;4924737;28;20478;-61
2023/06/02 11:33:42;;;;;;;;;;;18.00;99.90;;;;;;4954220;28;20042;-61
2023/06/02 11:36:10;;;;;;;5.60;1.95;;;18.40;99.90;;;;;;4939202;28;19922;-60
2023/06/02 11:38:38;;;;;;;4.78;1.60;;;18.50;99.90;;;;;;4928559;28;20043;-61
2023/06/02 11:41:17;;;;;;;6.63;2.15;;;18.20;99.90;;;;;;4948643;28;20042;-61
2023/06/02 11:43:48;;;;;;;6.40;1.80;;;18.40;99.90;;;;;;4949727;28;20050;-61
2023/06/02 11:46:16;;;;;;;5.40;1.60;;;18.60;99.90;;;;;;4948073;28;20605;-61
2023/06/02 11:48:43;;;;;;;5.63;1.30;;;18.50;99.90;;;;;;4938077;28;20740;-60
2023/06/02 11:51:10;;;;;;;5.50;1.67;;;18.30;99.90;;;;;;4955090;28;20149;-60
2023/06/02 11:53:45;;;;;;;4.90;1.60;;;18.70;99.90;;;;;;4929948;28;20047;-60
2023/06/02 11:56:15;;;;;;;8.07;2.15;;;18.90;98.30;;;;;;4945864;28;20142;-60
2023/06/02 11:58:45;;;;;;;6.10;1.80;;;19.00;99.90;;;;;;4951874;28;20074;-59
2023/06/02 12:01:18;;;;;;;5.80;1.65;;;18.00;99.90;;;;;;4927031;28;20053;-61
2023/06/02 12:04:05;;;;;;;6.05;1.65;;;19.40;99.90;;;;;;4949446;28;20042;-61
2023/06/02 12:06:32;;;;;;;4.57;1.67;;;19.40;99.90;;;;;;4950642;28;20364;-60
2023/06/02 12:09:12;;;;;;;7.35;1.90;;;18.70;99.90;;;;;;4930029;28;20046;-60
2023/06/02 12:11:38;;;;;;;6.30;2.20;;;19.30;99.90;;;;;;4937826;28;20046;-61
2023/06/02 12:14:06;;;;;;;7.32;1.88;;;19.80;99.90;;;;;;4949075;28;20043;-61
2023/06/02 12:16:34;;;;;;;5.75;1.63;;;20.10;99.90;;;;;;4936881;28;20050;-60
2023/06/02 12:19:16;;;;;;;5.15;1.98;;;20.70;99.90;;;;;;4932249;28;20051;-60
2023/06/02 12:21:45;;;;;;;7.00;1.83;;;20.70;99.90;;;;;;4952343;28;20043;-61
2023/06/02 12:24:30;;;;;;;5.78;2.25;;;20.70;99.90;;;;;;4948530;28;20043;-60
2023/06/02 12:26:56;;;;;;;6.75;2.15;;;21.40;99.90;;;;;;4952284;28;20046;-61
2023/06/02 12:29:22;;;;;;;10.02;2.33;;;21.60;99.90;;;;;;4948839;28;20408;-61
2023/06/02 12:31:55;;;;;;;7.05;2.42;;;21.20;99.90;;;;;;4937810;28;20118;-61
2023/06/02 12:34:21;;;;;;;5.95;2.20;;;22.40;99.90;;;;;;4954536;28;20433;-61
2023/06/02 12:36:47;;;;;;;6.75;2.00;;;23.10;99.90;;;;;;4947834;28;20073;-61
2023/06/02 12:39:12;;;;;;;7.93;2.50;;;25.20;97.00;;;;;;4955088;28;20051;-61
2023/06/02 12:41:39;;;;;;;5.80;2.47;;;27.80;73.90;;;;;;4954928;28;20067;-61
2023/06/02 12:44:04;;;;;;;6.50;2.13;;;29.40;35.90;;;;;;4957428;28;20061;-61
2023/06/02 12:46:30;;;;;;;5.95;2.25;;;29.30;21.10;;;;;;4956407;28;20046;-60
2023/06/02 12:48:58;;;;;;;6.78;2.20;;;30.90;12.90;;;;;;4954029;28;20322;-62
2023/06/02 12:51:24;;;;;;;8.48;2.42;;;31.90;1.00;;;;;;4955529;28;20070;-62
2023/06/02 12:53:49;;;;;;;7.55;1.85;;;33.20;1.00;;;;;;4952462;28;20122;-61